Data for 07/21/2007

Time Sea-Level Adjusted Pressure Absolute Pressure Temperature Relative Humidity Dew Point   
(mb) (inHg) (mb) (inHg) (C) (F) (%) (C) (F)
00:05 1014 29.94 843 24.89 25.1 77.3 19 -0.2 31.6
00:10 1014 29.94 843 24.89 24.9 76.9 19 -0.2 31.6
00:15 1014 29.94 843 24.89 24.8 76.6 17 -1.4 29.5
00:20 1014 29.94 843 24.89 25.2 77.4 16 -2.2 28
00:25 1014 29.94 844 24.92 25 77 16 -2.3 27.9
00:30 1014 29.94 843 24.89 25.1 77.3 16 -2.3 27.9
00:35 1014 29.94 843 24.89 24.8 76.7 17 -1.3 29.7
00:40 1014 29.94 844 24.92 24.7 76.5 16 -2.6 27.2
00:45 1014 29.94 844 24.92 25 77 16 -2.2 28
00:50 1014 29.94 844 24.92 25.1 77.1 22 2.2 35.9
00:55 1014 29.94 844 24.92 24.5 76.1 18 -1.4 29.5
01:00 1014 29.94 844 24.92 24.5 76 17 -1.7 28.9
01:05 1014 29.94 844 24.92 24.6 76.3 18 -1.3 29.7
01:10 1014 29.94 844 24.92 25 77.1 18 -0.9 30.3
01:15 1014 29.94 844 24.92 24.5 76.2 19 -0.6 31
01:20 1014 29.94 844 24.92 24.3 75.7 19 -0.7 30.8
01:25 1015 29.97 844 24.92 23.8 74.8 20 -0.5 31.2
01:30 1015 29.97 844 24.92 23.3 74 20 -0.9 30.5
01:35 1015 29.97 844 24.92 23.7 74.7 20 -0.2 31.6
01:40 1015 29.97 844 24.92 23.5 74.3 21 -0.1 31.8
01:45 1015 29.97 844 24.92 23.2 73.8 22 0.7 33.2
01:50 1015 29.97 844 24.92 22.5 72.6 23 0.7 33.3
01:55 1015 29.97 844 24.92 22.4 72.3 24 1.2 34.1
02:00 1015 29.97 844 24.92 21.6 70.8 24 0.4 32.7
02:05 1015 29.97 844 24.92 21.8 71.2 23 -0.1 31.8
02:10 1015 29.97 844 24.92 21.7 71 24 0.2 32.3
02:15 1015 29.97 844 24.92 21.6 70.9 25 0.9 33.7
02:20 1015 29.97 845 24.95 21.7 71.1 25 0.8 33.4
02:25 1015 29.97 845 24.95 22 71.6 23 0.1 32.3
02:30 1016 30 845 24.95 21.9 71.3 27 2.1 35.8
02:35 1016 30 845 24.95 21 69.8 28 2 35.5
02:40 1016 30 845 24.95 20.4 68.7 26 0.7 33.2
02:45 1016 30 845 24.95 20.6 69 29 2.2 36
02:50 1016 30 845 24.95 20.2 68.4 26 0.3 32.5
02:55 1016 30 845 24.95 20.9 69.6 28 1.8 35.2
03:00 1016 30 845 24.95 20.5 68.9 27 0.8 33.4
03:05 1016 30 845 24.95 20.4 68.6 28 1.6 34.8
03:10 1016 30 845 24.95 19.9 67.8 28 0.9 33.7
03:15 1016 30 845 24.95 20 68.1 28 1.1 33.9
03:20 1016 30 845 24.95 19.7 67.5 33 3.4 38.1
03:25 1016 30 845 24.95 19.4 67 31 2.1 35.9
03:30 1016 30 845 24.95 19 66.2 31 1.5 34.6
03:35 1016 30 845 24.95 18.4 65.1 34 2.2 35.9
03:40 1016 30 845 24.95 17.5 63.5 37 2.9 37.3
03:45 1016 30 845 24.95 17.4 63.3 33 0.9 33.7
03:50 1016 30 845 24.95 17.9 64.3 32 1.3 34.4
03:55 1016 30 845 24.95 18 64.5 32 1.2 34.2
04:00 1016 30 845 24.95 18 64.4 33 1.4 34.6
04:05 1016 30 845 24.95 17.6 63.6 35 1.9 35.5
04:10 1016 30 846 24.98 17.1 62.7 38 2.7 36.8
04:15 1016 30 846 24.98 16.8 62.2 37 2.3 36.2
04:20 1016 30 846 24.98 16.7 62.1 40 3.1 37.6
04:25 1016 30 846 24.98 16.7 62.1 36 1.7 35
04:30 1016 30 846 24.98 17.2 62.9 35 1.6 34.9
04:35 1016 30 846 24.98 17.1 62.8 35 1.6 34.9
04:40 1016 30 846 24.98 17 62.7 35 1.6 34.9
04:45 1016 30 846 24.98 16.9 62.3 36 1.8 35.2
04:50 1017 30.03 846 24.98 17 62.6 37 2.4 36.3
04:55 1017 30.03 846 24.98 16.8 62.2 40 3 37.5
05:00 1017 30.03 846 24.98 16.1 60.9 38 2 35.5
05:05 1017 30.03 846 24.98 16.3 61.4 36 1.3 34.4
05:10 1017 30.03 846 24.98 16.9 62.5 33 0.8 33.4
05:15 1017 30.03 846 24.98 17.6 63.7 32 0.7 33.2
05:20 1017 30.03 846 24.98 17.8 64.1 32 1.2 34.1
05:25 1017 30.03 846 24.98 17.7 63.8 32 0.7 33.3
05:30 1017 30.03 846 24.98 18.1 64.5 31 0.7 33.2
05:35 1017 30.03 846 24.98 18.5 65.3 30 1 33.7
05:40 1017 30.03 846 24.98 18.6 65.4 30 0.7 33.3
05:45 1017 30.03 846 24.98 18.6 65.6 31 1.1 34
05:50 1017 30.03 846 24.98 18.5 65.2 30 0.9 33.5
05:55 1017 30.03 846 24.98 18.8 65.8 30 1 33.8
06:00 1017 30.03 846 24.98 18.7 65.7 32 1.7 35.1
06:05 1017 30.03 846 24.98 18.1 64.5 33 1.6 34.9
06:10 1017 30.03 846 24.98 17.5 63.5 34 1.6 35
06:15 1017 30.03 846 24.98 17.1 62.8 34 1.4 34.5
06:20 1017 30.03 846 24.98 17.1 62.7 35 1.4 34.6
06:25 1017 30.03 846 24.98 17.2 63 35 1.8 35.3
06:30 1017 30.03 846 24.98 17.6 63.6 34 1.5 34.8
06:35 1017 30.03 846 24.98 17.9 64.2 32 1.2 34.1
06:40 1017 30.03 847 25.01 18.1 64.5 33 1.6 34.9
06:45 1017 30.03 847 25.01 18.1 64.6 32 1.5 34.7
06:50 1017 30.03 847 25.01 18.2 64.8 33 1.8 35.2
06:55 1017 30.03 847 25.01 18.4 65 34 2.5 36.6
07:00 1018 30.06 847 25.01 18.6 65.4 33 2.1 35.8
07:05 1018 30.06 847 25.01 18.8 65.8 33 2.2 36
07:10 1018 30.06 847 25.01 18.8 65.8 32 1.9 35.4
07:15 1018 30.06 847 25.01 18.7 65.7 35 3.2 37.8
07:20 1018 30.06 847 25.01 17.9 64.3 34 1.8 35.2
07:25 1018 30.06 847 25.01 18.2 64.7 35 2.7 36.9
07:30 1018 30.06 847 25.01 18.2 64.7 36 3.2 37.7
07:35 1018 30.06 847 25.01 17.9 64.2 42 5.1 41.1
07:40 1018 30.06 847 25.01 17.7 63.8 41 4.3 39.7
07:45 1018 30.06 847 25.01 18 64.3 41 4.5 40.1
07:50 1018 30.06 847 25.01 18.4 65.2 37 3.4 38.2
07:55 1018 30.06 847 25.01 19.5 67.1 34 3.2 37.8
08:00 1018 30.06 847 25.01 20 67.9 35 4.1 39.5
08:05 1018 30.06 847 25.01 20 67.9 35 4.2 39.6
08:10 1018 30.06 847 25.01 20.2 68.4 39 6.1 42.9
08:15 1018 30.06 847 25.01 20.2 68.3 41 6.5 43.8
08:20 1018 30.06 847 25.01 20.3 68.5 38 5.6 42.1
08:25 1018 30.06 847 25.01 20.8 69.4 36 5.4 41.7
08:30 1018 30.06 847 25.01 21.1 70 34 4.9 40.8
08:35 1018 30.06 847 25.01 21.5 70.7 35 5.7 42.3
08:40 1018 30.06 847 25.01 22.1 71.9 34 5.6 42.1
08:45 1018 30.06 847 25.01 22.5 72.5 34 5.9 42.6
08:50 1018 30.06 847 25.01 22.8 73 33 6 42.8
08:55 1018 30.06 847 25.01 23.5 74.2 31 5.5 41.8
09:00 1018 30.06 848 25.04 24.3 75.7 27 4.3 39.8
09:05 1018 30.06 848 25.04 24.8 76.6 30 6.4 43.6
09:10 1018 30.06 848 25.04 25 77 30 6.3 43.4
09:15 1018 30.06 848 25.04 25.2 77.4 27 5.3 41.5
09:20 1018 30.06 848 25.04 25.6 78.1 29 6.6 43.9
09:25 1018 30.06 848 25.04 25.5 77.9 29 6.5 43.6
09:30 1018 30.06 848 25.04 25.8 78.4 28 5.9 42.6
09:35 1019 30.09 848 25.04 26.1 79 26 5.5 41.9
09:40 1019 30.09 848 25.04 26.4 79.5 26 5.8 42.4
09:45 1019 30.09 848 25.04 26.5 79.7 24 4.6 40.2
09:50 1019 30.09 848 25.04 26.7 80 24 5 40.9
09:55 1019 30.09 848 25.04 26.6 79.9 25 5.4 41.7
10:00 1019 30.09 848 25.04 26.5 79.8 26 5.7 42.2
10:05 1019 30.09 848 25.04 26 78.8 27 6.1 43
10:10 1019 30.09 848 25.04 26.7 80.1 26 5.7 42.2
10:15 1019 30.09 848 25.04 26.6 79.9 25 5.3 41.6
10:20 1019 30.09 848 25.04 26.4 79.5 25 5.1 41.2
10:25 1019 30.09 848 25.04 26.6 79.9 25 5 41.1
10:30 1019 30.09 848 25.04 26.9 80.5 24 4.9 40.9
10:35 1018 30.06 848 25.04 27.2 81 25 5.6 42
10:40 1018 30.06 848 25.04 28.1 82.5 23 5.5 41.9
10:45 1018 30.06 848 25.04 27.7 81.9 25 6.4 43.5
10:50 1019 30.09 848 25.04 27.7 81.8 25 5.9 42.7
10:55 1019 30.09 848 25.04 27.3 81.1 25 5.8 42.5
11:00 1018 30.06 848 25.04 27.4 81.3 24 5.5 41.9
11:05 1018 30.06 848 25.04 28 82.3 23 5.5 41.8
11:10 1019 30.09 848 25.04 28.7 83.6 24 6.4 43.5
11:15 1019 30.09 848 25.04 29.1 84.3 23 6.1 42.9
11:20 1019 30.09 848 25.04 29.1 84.3 23 5.9 42.7
11:25 1019 30.09 848 25.04 29.1 84.3 23 5.9 42.6
11:30 1018 30.06 848 25.04 29 84.2 23 5.9 42.6
11:35 1018 30.06 848 25.04 29.2 84.5 22 5.5 42
11:40 1018 30.06 848 25.04 29.1 84.4 22 5.9 42.5
11:45 1018 30.06 848 25.04 29.5 85.2 22 6.2 43.2
11:50 1018 30.06 848 25.04 29.8 85.7 21 5.8 42.4
11:55 1018 30.06 848 25.04 30.2 86.3 21 5.6 42
12:00 1018 30.06 848 25.04 30.3 86.5 21 5.9 42.6
12:05 1018 30.06 848 25.04 30.4 86.6 20 5.3 41.6
12:10 1018 30.06 848 25.04 29.2 84.5 23 6.5 43.8
12:15 1018 30.06 848 25.04 29.7 85.5 21 5.5 41.9
12:20 1018 30.06 848 25.04 30.7 87.3 18 4.3 39.8
12:25 1018 30.06 848 25.04 30.8 87.4 19 4.6 40.2
12:30 1018 30.06 848 25.04 30.6 87.1 18 4.1 39.3
12:35 1018 30.06 848 25.04 30.8 87.4 19 5.1 41.1
12:40 1018 30.06 848 25.04 30.5 86.9 22 6.7 44.1
12:45 1018 30.06 848 25.04 31.2 88.1 18 4.4 40
12:50 1018 30.06 848 25.04 31.3 88.3 19 5.5 42
12:55 1018 30.06 847 25.01 30.8 87.4 20 5.5 41.9
13:00 1018 30.06 847 25.01 30.9 87.7 19 4.8 40.6
13:05 1018 30.06 847 25.01 31.3 88.3 20 6 42.8
13:10 1018 30.06 847 25.01 31.2 88.2 17 3.8 38.9
13:15 1018 30.06 847 25.01 31.7 89 17 3.6 38.5
13:20 1018 30.06 847 25.01 32.3 90.1 17 4.5 40
13:25 1018 30.06 847 25.01 31.6 89 16 3.1 37.5
13:30 1018 30.06 847 25.01 32.3 90.1 15 3 37.3
13:35 1018 30.06 847 25.01 32.2 90 16 3.7 38.6
13:40 1018 30.06 847 25.01 31.9 89.4 17 3.9 39
13:45 1018 30.06 847 25.01 32.7 90.8 15 3.3 37.9
13:50 1018 30.06 847 25.01 32.8 91.1 16 3.9 38.9
13:55 1018 30.06 847 25.01 32.9 91.2 15 3.7 38.7
14:00 1018 30.06 847 25.01 33 91.5 16 4 39.1
14:05 1018 30.06 847 25.01 32.4 90.4 17 4.4 39.9
14:10 1018 30.06 847 25.01 32.3 90.1 15 2.3 36.2
14:15 1018 30.06 847 25.01 32.7 90.9 15 3.6 38.4
14:20 1018 30.06 847 25.01 33.7 92.7 13 2.4 36.3
14:25 1018 30.06 847 25.01 34.1 93.4 13 2.5 36.5
14:30 1018 30.06 847 25.01 34.2 93.5 14 3.5 38.3
14:35 1018 30.06 847 25.01 34.6 94.3 13 3 37.4
14:40 1018 30.06 847 25.01 33.2 91.8 15 3.3 37.9
14:45 1018 30.06 847 25.01 33.3 91.9 15 3.3 38
14:50 1017 30.03 847 25.01 32.9 91.2 14 2.6 36.7
14:55 1017 30.03 847 25.01 33.6 92.4 14 2.5 36.5
15:00 1017 30.03 847 25.01 34 93.2 13 2.2 36
15:05 1017 30.03 847 25.01 34.2 93.6 13 2.7 36.9
15:10 1017 30.03 847 25.01 33.6 92.5 13 2.2 35.9
15:15 1017 30.03 847 25.01 32.8 91.1 13 1.4 34.5
15:20 1017 30.03 847 25.01 32.7 90.8 13 0.9 33.6
15:25 1017 30.03 847 25.01 32.8 91 13 1.5 34.7
15:30 1017 30.03 847 25.01 33 91.3 13 0.9 33.6
15:35 1017 30.03 846 24.98 33.2 91.8 14 2.2 35.9
15:40 1017 30.03 846 24.98 33.3 92 12 0.5 32.9
15:45 1017 30.03 846 24.98 33.6 92.5 12 1 33.8
15:50 1017 30.03 846 24.98 34.6 94.2 14 3.9 39.1
15:55 1017 30.03 847 25.01 34.4 94 12 1 33.9
16:00 1017 30.03 846 24.98 34.6 94.2 11 0.4 32.8
16:05 1017 30.03 846 24.98 34.3 93.7 11 0.2 32.4
16:10 1017 30.03 846 24.98 34.6 94.3 11 0.3 32.6
16:15 1017 30.03 846 24.98 34.7 94.4 11 0.4 32.8
16:20 1017 30.03 846 24.98 34.5 94.2 11 -0.1 31.8
16:25 1017 30.03 846 24.98 34.4 94 11 0.4 32.7
16:30 1017 30.03 846 24.98 34.1 93.3 11 -0.4 31.3
16:35 1017 30.03 846 24.98 33.7 92.6 11 -0.8 30.5
16:40 1017 30.03 846 24.98 34.2 93.6 11 0.4 32.8
16:45 1017 30.03 846 24.98 35 94.9 11 0.2 32.4
16:50 1017 30.03 846 24.98 34.2 93.6 10 -0.9 30.3
16:55 1017 30.03 846 24.98 34 93.2 10 -1.6 29.1
17:00 1017 30.03 846 24.98 34.7 94.4 10 -0.3 31.4
17:05 1017 30.03 846 24.98 34.6 94.4 10 -0.6 30.9
17:10 1017 30.03 846 24.98 34.8 94.6 10 -0.7 30.8
17:15 1017 30.03 846 24.98 34.6 94.3 12 1.6 35
17:20 1017 30.03 846 24.98 34.2 93.5 11 0.1 32.1
17:25 1017 30.03 846 24.98 33.6 92.6 13 1.4 34.6
17:30 1017 30.03 846 24.98 33.7 92.6 13 1.7 35.1
17:35 1017 30.03 846 24.98 34 93.2 12 0.8 33.4
17:40 1017 30.03 846 24.98 33.9 93.1 13 1.8 35.3
17:45 1017 30.03 846 24.98 34 93.2 12 1.2 34.2
17:50 1017 30.03 846 24.98 33.9 92.9 15 4.2 39.5
17:55 1017 30.03 846 24.98 34 93.2 12 1.6 34.8
18:00 1017 30.03 846 24.98 34.7 94.5 12 1.4 34.6
18:05 1017 30.03 846 24.98 34.6 94.2 12 1.9 35.4
18:10 1017 30.03 846 24.98 33.6 92.5 12 1.1 33.9
18:15 1017 30.03 846 24.98 33.9 92.9 13 1.5 34.8
18:20 1017 30.03 846 24.98 34.6 94.3 12 1.3 34.3
18:25 1017 30.03 846 24.98 34.7 94.5 12 1.7 35.1
18:30 1017 30.03 846 24.98 33.8 92.9 13 1.9 35.4
18:35 1017 30.03 846 24.98 33.4 92.1 13 1.2 34.1
18:40 1017 30.03 846 24.98 33.6 92.5 12 0.8 33.5
18:45 1017 30.03 846 24.98 34 93.1 12 1.2 34.1
18:50 1017 30.03 846 24.98 34 93.1 12 1.2 34.2
18:55 1017 30.03 846 24.98 33.7 92.6 13 2.2 35.9
19:00 1017 30.03 846 24.98 33.6 92.5 15 3.7 38.6
19:05 1017 30.03 846 24.98 33.4 92.1 13 1.9 35.5
19:10 1017 30.03 846 24.98 33.1 91.6 13 0.9 33.7
19:15 1017 30.03 846 24.98 33 91.4 12 -0.2 31.7
19:20 1017 30.03 846 24.98 33.1 91.6 12 -0 32
19:25 1017 30.03 846 24.98 32.8 91 22 8.6 47.5
19:30 1017 30.03 846 24.98 31.1 87.9 26 9.4 49
19:35 1017 30.03 846 24.98 30.4 86.7 29 10.5 51
19:40 1017 30.03 846 24.98 30.1 86.3 25 8.3 47
19:45 1017 30.03 846 24.98 30.1 86.1 24 7.4 45.2
19:50 1017 30.03 846 24.98 30 85.9 29 10.4 50.6
19:55 1017 30.03 846 24.98 29.4 84.9 31 10.7 51.3
20:00 1017 30.03 846 24.98 29.1 84.3 30 10.3 50.5
20:05 1017 30.03 846 24.98 29 84.2 27 8.5 47.3
20:10 1017 30.03 846 24.98 29 84.2 32 11.1 52
20:15 1017 30.03 846 24.98 28.4 83.2 31 10 50
20:20 1017 30.03 846 24.98 28.1 82.5 30 9.1 48.4
20:25 1017 30.03 846 24.98 27.6 81.6 34 10.5 50.9
20:30 1017 30.03 846 24.98 26.8 80.3 35 10.3 50.6
20:35 1017 30.03 847 25.01 26.6 79.8 34 9.7 49.4
20:40 1017 30.03 847 25.01 27 80.6 31 8.5 47.3
20:45 1017 30.03 847 25.01 26.8 80.3 34 10.1 50.1
20:50 1017 30.03 847 25.01 26.3 79.4 34 9.5 49.1
20:55 1017 30.03 847 25.01 25.8 78.4 38 10.5 50.9
21:00 1018 30.06 847 25.01 25.8 78.4 36 9.8 49.6
21:05 1018 30.06 847 25.01 25.6 78 33 8.2 46.8
21:10 1018 30.06 847 25.01 25.1 77.2 36 9.2 48.5
21:15 1018 30.06 847 25.01 24.7 76.4 32 7.2 45
21:20 1018 30.06 847 25.01 25.1 77.1 27 5 41
21:25 1018 30.06 847 25.01 25.5 77.9 26 4.6 40.3
21:30 1018 30.06 847 25.01 25.7 78.2 25 4.6 40.3
21:35 1018 30.06 847 25.01 25.5 77.8 26 5 40.9
21:40 1018 30.06 847 25.01 25.9 78.7 23 3.6 38.6
21:45 1018 30.06 847 25.01 25.6 78.1 26 5.1 41.2
21:50 1018 30.06 847 25.01 25.1 77.3 21 1.2 34.2
21:55 1018 30.06 847 25.01 25.6 78 22 2.7 36.9
22:00 1018 30.06 848 25.04 25.2 77.3 24 3.2 37.7
22:05 1018 30.06 848 25.04 25.5 78 21 1.7 35.1
22:10 1018 30.06 848 25.04 26.1 78.9 20 1.4 34.5
22:15 1018 30.06 848 25.04 26 78.8 20 1.9 35.5
22:20 1018 30.06 848 25.04 25.4 77.7 23 3.2 37.7
22:25 1019 30.09 848 25.04 24.8 76.6 23 2.6 36.7
22:30 1019 30.09 848 25.04 24.6 76.3 23 2.3 36.2
22:35 1018 30.06 848 25.04 24.4 75.9 24 2.8 37.1
22:40 1019 30.09 848 25.04 23.9 75 25 2.8 37
22:45 1019 30.09 848 25.04 23.9 74.9 24 2.4 36.4
22:50 1019 30.09 848 25.04 23.7 74.7 24 2.1 35.9
22:55 1019 30.09 848 25.04 23.8 74.8 25 2.9 37.3
23:00 1019 30.09 848 25.04 23.7 74.7 25 2.8 37.1
23:05 1019 30.09 848 25.04 23.8 74.9 24 2.5 36.5
23:10 1019 30.09 848 25.04 23.8 74.9 24 2.3 36.1
23:15 1019 30.09 848 25.04 23.7 74.7 26 3.2 37.7
23:20 1019 30.09 848 25.04 23.2 73.8 27 3.6 38.5
23:25 1019 30.09 848 25.04 23.3 73.9 26 3.2 37.7
23:30 1019 30.09 848 25.04 23.3 73.9 26 3 37.4
23:35 1019 30.09 848 25.04 23.2 73.7 26 2.7 36.9
23:40 1019 30.09 848 25.04 23.2 73.7 26 2.9 37.2
23:45 1019 30.09 848 25.04 23.1 73.5 26 2.6 36.6
23:50 1019 30.09 848 25.04 23.1 73.6 25 2.4 36.4
23:55 1019 30.09 848 25.04 23 73.4 25 2.4 36.3
24:00 1019 30.09 848 25.04 22.9 73.3 25 2.3 36.2